Time;durP1;ratioP1;P1;durP2;ratioP2;P2;SDS_P1;SDS_P2;PMS_P1;PMS_P2;Temp;Humidity;BMP_temperature;BMP_pressure;BME280_temperature;BME280_humidity;BME280_pressure;Samples;Min_cycle;Max_cycle;Signal;HPM_P1;HPM_P2
2023/09/01 00:02:24;;;;;;;49.50;45.50;;;;;;;;;;5095165;28;20431;-79
2023/09/01 00:04:51;;;;;;;49.37;45.70;;;;;;;;;;5095052;28;20437;-78
2023/09/01 00:07:18;;;;;;;54.50;50.10;;;;;;;;;;5094859;28;20407;-78
2023/09/01 00:09:46;;;;;;;51.97;48.13;;;;;;;;;;5094365;28;20440;-79
2023/09/01 00:12:14;;;;;;;52.40;48.50;;;;;;;;;;5096078;28;20466;-78
2023/09/01 00:14:41;;;;;;;54.57;50.33;;;;;;;;;;5095786;28;20783;-78
2023/09/01 00:17:08;;;;;;;51.83;47.70;;;;;;;;;;5095967;28;20427;-77
2023/09/01 00:19:35;;;;;;;52.77;48.97;;;;;;;;;;5095653;28;20435;-78
2023/09/01 00:22:03;;;;;;;50.73;46.80;;;;;;;;;;5097740;28;20444;-78
2023/09/01 00:24:31;;;;;;;52.70;48.43;;;;;;;;;;5100158;28;20919;-78
2023/09/01 00:26:58;;;;;;;54.57;50.13;;;;;;;;;;5097275;28;20489;-78
2023/09/01 00:29:27;;;;;;;51.60;48.10;;;;;;;;;;5094742;28;20427;-78
2023/09/01 00:31:54;;;;;;;54.20;49.73;;;;;;;;;;5092716;28;20450;-79
2023/09/01 00:34:21;;;;;;;52.67;48.73;;;;;;;;;;5094825;28;20429;-78
2023/09/01 00:36:50;;;;;;;52.80;48.63;;;;;;;;;;5094436;28;20900;-79
2023/09/01 00:39:17;;;;;;;50.13;46.43;;;;;;;;;;5094291;28;20419;-79
2023/09/01 00:41:44;;;;;;;51.13;47.40;;;;;;;;;;5093767;28;20411;-78
2023/09/01 00:44:13;;;;;;;52.60;48.03;;;;;;;;;;5094216;28;20440;-78
2023/09/01 00:46:43;;;;;;;52.10;47.83;;;;;;;;;;5096948;28;20465;-78
2023/09/01 00:49:11;;;;;;;53.73;49.70;;;;;;;;;;5094220;28;20785;-78
2023/09/01 00:51:38;;;;;;;55.67;51.17;;;;;;;;;;5094061;28;20423;-78
2023/09/01 00:54:06;;;;;;;52.07;47.97;;;;;;;;;;5094870;28;20492;-78
2023/09/01 00:56:33;;;;;;;51.40;47.77;;;;;;;;;;5098747;28;20449;-77
2023/09/01 00:59:00;;;;;;;52.27;48.10;;;;;;;;;;5095491;28;20445;-77
2023/09/01 01:01:27;;;;;;;53.30;49.10;;;;;;;;;;5094298;28;20817;-77
2023/09/01 01:03:55;;;;;;;51.67;47.70;;;;;;;;;;5094876;28;20431;-78
2023/09/01 01:06:26;;;;;;;53.67;49.57;;;;;;;;;;5095362;28;20456;-78
2023/09/01 01:09:03;;;;;;;52.27;48.17;;;;;;;;;;5095135;28;20400;-78
2023/09/01 01:11:34;;;;;;;51.87;47.27;;;;;;;;;;5094276;28;20443;-79
2023/09/01 01:14:06;;;;;;;51.13;46.93;;;;;;;;;;5094920;28;20459;-78
2023/09/01 01:16:33;;;;;;;51.90;47.83;;;;;;;;;;5098953;28;20469;-78
2023/09/01 01:19:06;;;;;;;49.47;45.07;;;;;;;;;;5101786;28;20418;-79
2023/09/01 01:33:52;;;;;;;52.33;48.23;;;;;;;;;;5090473;28;21030;-79
2023/09/01 01:36:25;;;;;;;52.77;48.77;;;;;;;;;;5068360;28;20423;-79
2023/09/01 01:38:59;;;;;;;51.60;47.80;;;;;;;;;;5091898;28;20416;-78
2023/09/01 01:41:29;;;;;;;53.30;49.20;;;;;;;;;;5092360;28;20415;-78
2023/09/01 01:43:57;;;;;;;48.77;45.07;;;;;;;;;;5093249;28;20463;-79
2023/09/01 01:46:25;;;;;;;48.17;44.77;;;;;;;;;;5093428;28;20420;-78
2023/09/01 01:48:52;;;;;;;49.20;45.20;;;;;;;;;;5093377;28;20444;-78
2023/09/01 01:51:21;;;;;;;46.63;43.13;;;;;;;;;;5092601;28;20480;-77
2023/09/01 01:53:48;;;;;;;47.07;43.20;;;;;;;;;;5092934;28;20463;-78
2023/09/01 01:56:16;;;;;;;47.90;44.17;;;;;;;;;;5092804;28;20971;-78
2023/09/01 01:58:43;;;;;;;47.83;44.03;;;;;;;;;;5093478;28;20440;-78
2023/09/01 02:01:10;;;;;;;48.73;45.00;;;;;;;;;;5095735;28;20485;-77
2023/09/01 02:03:37;;;;;;;48.80;45.10;;;;;;;;;;5096264;28;20457;-78
2023/09/01 02:06:05;;;;;;;49.67;45.60;;;;;;;;;;5096274;28;20469;-78
2023/09/01 02:08:33;;;;;;;47.53;44.13;;;;;;;;;;5095522;28;20450;-78
2023/09/01 02:11:01;;;;;;;48.17;44.23;;;;;;;;;;5095309;28;20448;-78
2023/09/01 02:13:28;;;;;;;46.07;42.77;;;;;;;;;;5095574;28;20492;-78
2023/09/01 02:15:55;;;;;;;47.00;43.57;;;;;;;;;;5095593;28;20476;-78
2023/09/01 02:18:22;;;;;;;49.33;45.40;;;;;;;;;;5094251;28;20445;-78
2023/09/01 02:20:49;;;;;;;49.80;46.00;;;;;;;;;;5090611;28;20418;-77
2023/09/01 02:23:17;;;;;;;50.80;46.90;;;;;;;;;;5092581;28;20534;-77
2023/09/01 02:25:46;;;;;;;50.27;46.27;;;;;;;;;;5092706;28;20453;-78
2023/09/01 02:28:13;;;;;;;49.37;45.67;;;;;;;;;;5094363;28;20912;-77
2023/09/01 02:30:40;;;;;;;48.87;44.73;;;;;;;;;;5092240;28;20437;-78
2023/09/01 02:33:08;;;;;;;50.63;46.47;;;;;;;;;;5092345;28;20489;-78
2023/09/01 02:35:35;;;;;;;48.80;44.63;;;;;;;;;;5092892;28;20490;-78
2023/09/01 02:38:02;;;;;;;51.73;47.67;;;;;;;;;;5091826;28;20437;-78
2023/09/01 02:40:29;;;;;;;49.40;45.27;;;;;;;;;;5091580;28;20453;-78
2023/09/01 02:42:57;;;;;;;49.43;45.23;;;;;;;;;;5092163;28;20439;-78
2023/09/01 02:45:24;;;;;;;48.07;44.23;;;;;;;;;;5091811;28;20434;-78
2023/09/01 02:47:51;;;;;;;48.40;44.77;;;;;;;;;;5091814;28;20445;-78
2023/09/01 02:50:19;;;;;;;47.50;44.00;;;;;;;;;;5091496;28;20467;-78
2023/09/01 02:52:46;;;;;;;47.97;44.13;;;;;;;;;;5097111;28;20516;-78
2023/09/01 02:55:16;;;;;;;47.30;43.60;;;;;;;;;;5095357;28;20514;-77
2023/09/01 02:57:43;;;;;;;49.03;45.03;;;;;;;;;;5092381;28;20404;-78
2023/09/01 03:00:18;;;;;;;45.47;42.10;;;;;;;;;;5091339;28;20449;-77
2023/09/01 03:02:45;;;;;;;48.00;44.00;;;;;;;;;;5092907;28;20516;-78
2023/09/01 03:05:12;;;;;;;46.87;43.40;;;;;;;;;;5096858;28;20451;-79
2023/09/01 03:07:39;;;;;;;47.87;44.27;;;;;;;;;;5094122;28;20420;-77
2023/09/01 03:10:07;;;;;;;48.10;44.50;;;;;;;;;;5091594;28;20440;-78
2023/09/01 03:12:35;;;;;;;48.70;44.83;;;;;;;;;;5091798;28;20448;-78
2023/09/01 03:15:02;;;;;;;47.83;44.27;;;;;;;;;;5091941;28;20441;-78
2023/09/01 03:17:31;;;;;;;45.30;42.10;;;;;;;;;;5092138;28;20780;-77
2023/09/01 03:19:58;;;;;;;47.23;43.63;;;;;;;;;;5092180;28;20444;-77
2023/09/01 03:22:25;;;;;;;49.43;45.50;;;;;;;;;;5092556;28;20878;-77
2023/09/01 03:24:53;;;;;;;45.73;42.33;;;;;;;;;;5091780;28;20419;-77
2023/09/01 03:27:21;;;;;;;45.63;42.03;;;;;;;;;;5097681;28;20445;-77
2023/09/01 03:29:52;;;;;;;48.07;44.17;;;;;;;;;;5091238;28;20506;-77
2023/09/01 03:32:19;;;;;;;50.73;46.80;;;;;;;;;;5093680;28;20449;-78
2023/09/01 03:34:48;;;;;;;50.17;46.47;;;;;;;;;;5095232;28;20858;-78
2023/09/01 03:37:15;;;;;;;50.00;46.10;;;;;;;;;;5095547;28;20453;-78
2023/09/01 03:39:42;;;;;;;50.60;46.63;;;;;;;;;;5093787;28;20435;-78
2023/09/01 03:42:09;;;;;;;49.20;45.23;;;;;;;;;;5095085;28;20428;-78
2023/09/01 03:44:36;;;;;;;47.70;43.83;;;;;;;;;;5095285;28;20424;-78
2023/09/01 03:47:03;;;;;;;46.60;42.83;;;;;;;;;;5095308;28;20818;-78
2023/09/01 03:49:31;;;;;;;48.30;44.70;;;;;;;;;;5095253;28;20491;-79
2023/09/01 03:51:59;;;;;;;45.53;41.70;;;;;;;;;;5094765;28;20470;-79
2023/09/01 03:54:26;;;;;;;46.80;42.97;;;;;;;;;;5094956;28;20821;-78
2023/09/01 03:56:54;;;;;;;45.70;42.00;;;;;;;;;;5095403;28;20415;-78
2023/09/01 03:59:21;;;;;;;48.23;44.53;;;;;;;;;;5094838;28;20960;-79
2023/09/01 04:01:48;;;;;;;45.57;42.23;;;;;;;;;;5094261;28;20464;-78
2023/09/01 04:04:16;;;;;;;48.27;44.30;;;;;;;;;;5095084;28;20423;-78
2023/09/01 04:06:43;;;;;;;48.00;43.90;;;;;;;;;;5095028;28;20445;-77
2023/09/01 04:09:11;;;;;;;47.90;44.40;;;;;;;;;;5094890;28;20427;-78
2023/09/01 04:11:38;;;;;;;49.70;45.43;;;;;;;;;;5094780;28;20891;-77
2023/09/01 04:14:07;;;;;;;45.53;42.03;;;;;;;;;;5095574;28;20496;-77
2023/09/01 04:16:34;;;;;;;48.00;44.20;;;;;;;;;;5094993;28;20995;-77
2023/09/01 04:19:02;;;;;;;46.10;42.60;;;;;;;;;;5095269;28;20441;-77
2023/09/01 04:21:29;;;;;;;44.40;41.20;;;;;;;;;;5093932;28;20453;-77
2023/09/01 04:23:56;;;;;;;43.53;40.37;;;;;;;;;;5094812;28;20492;-77
2023/09/01 04:26:24;;;;;;;46.60;42.93;;;;;;;;;;5094955;28;20455;-78
2023/09/01 04:28:51;;;;;;;46.73;42.77;;;;;;;;;;5094939;28;20534;-78
2023/09/01 04:31:22;;;;;;;45.77;42.47;;;;;;;;;;5094271;28;20427;-78
2023/09/01 04:33:49;;;;;;;45.90;42.60;;;;;;;;;;5095708;28;20515;-77
2023/09/01 04:36:16;;;;;;;45.77;42.37;;;;;;;;;;5095156;28;20411;-78
2023/09/01 04:38:43;;;;;;;48.50;44.50;;;;;;;;;;5094766;28;20445;-77
2023/09/01 04:41:10;;;;;;;46.10;42.63;;;;;;;;;;5099692;28;20425;-78
2023/09/01 04:43:38;;;;;;;48.70;45.13;;;;;;;;;;5107479;28;20479;-78
2023/09/01 04:46:06;;;;;;;46.90;43.50;;;;;;;;;;5095806;28;20419;-79
2023/09/01 04:48:34;;;;;;;49.27;45.37;;;;;;;;;;5096120;28;20457;-78
2023/09/01 04:51:02;;;;;;;46.60;43.30;;;;;;;;;;5094644;28;20458;-78
2023/09/01 04:53:29;;;;;;;45.60;42.20;;;;;;;;;;5094228;28;20489;-77
2023/09/01 04:55:57;;;;;;;43.53;40.30;;;;;;;;;;5094951;28;20446;-78
2023/09/01 04:58:24;;;;;;;44.47;41.10;;;;;;;;;;5095128;28;20823;-77
2023/09/01 05:00:53;;;;;;;48.30;44.77;;;;;;;;;;5092701;28;20456;-78
2023/09/01 05:03:20;;;;;;;46.97;43.00;;;;;;;;;;5094753;28;20430;-77
2023/09/01 05:05:47;;;;;;;45.97;42.47;;;;;;;;;;5094520;28;20423;-78
2023/09/01 05:08:14;;;;;;;46.13;42.53;;;;;;;;;;5095926;28;20465;-77
2023/09/01 05:10:41;;;;;;;48.10;44.13;;;;;;;;;;5095425;28;20465;-78
2023/09/01 05:13:08;;;;;;;45.30;41.30;;;;;;;;;;5094753;28;20461;-77
2023/09/01 05:15:36;;;;;;;44.63;41.57;;;;;;;;;;5094619;28;20426;-79
2023/09/01 05:18:04;;;;;;;42.43;39.20;;;;;;;;;;5095221;28;20452;-78
2023/09/01 05:20:31;;;;;;;45.03;41.23;;;;;;;;;;5092573;28;20445;-79
2023/09/01 05:22:59;;;;;;;43.67;40.37;;;;;;;;;;5093762;28;20465;-77
2023/09/01 05:25:26;;;;;;;41.70;38.60;;;;;;;;;;5093370;28;20445;-77
2023/09/01 05:27:54;;;;;;;42.67;39.33;;;;;;;;;;5094126;28;20536;-79
2023/09/01 05:30:21;;;;;;;43.13;39.33;;;;;;;;;;5093568;28;20441;-78
2023/09/01 05:32:48;;;;;;;40.43;37.23;;;;;;;;;;5093672;28;21005;-79
2023/09/01 05:35:16;;;;;;;40.20;37.33;;;;;;;;;;5094524;28;20476;-77
2023/09/01 05:37:44;;;;;;;39.63;36.87;;;;;;;;;;5092164;28;20424;-77
2023/09/01 05:40:11;;;;;;;41.80;38.27;;;;;;;;;;5092659;28;20436;-78
2023/09/01 05:42:39;;;;;;;41.57;38.47;;;;;;;;;;5093042;28;20538;-78
2023/09/01 05:45:06;;;;;;;42.70;39.67;;;;;;;;;;5092938;28;20463;-78
2023/09/01 05:47:33;;;;;;;44.07;40.67;;;;;;;;;;5093603;28;20440;-77
2023/09/01 05:50:00;;;;;;;41.47;38.43;;;;;;;;;;5092748;28;20431;-78
2023/09/01 05:52:29;;;;;;;41.43;37.90;;;;;;;;;;5093133;28;20482;-78
2023/09/01 05:54:56;;;;;;;43.00;39.13;;;;;;;;;;5092870;28;20477;-77
2023/09/01 05:57:23;;;;;;;43.60;39.77;;;;;;;;;;5096029;28;20441;-78
2023/09/01 05:59:50;;;;;;;40.73;37.70;;;;;;;;;;5092602;28;20408;-77
2023/09/01 06:02:18;;;;;;;38.97;36.17;;;;;;;;;;5093018;28;20823;-77
2023/09/01 06:04:45;;;;;;;38.00;35.17;;;;;;;;;;5093222;28;20439;-78
2023/09/01 06:07:12;;;;;;;37.73;35.00;;;;;;;;;;5093088;28;20419;-77
2023/09/01 06:09:40;;;;;;;38.73;35.83;;;;;;;;;;5092444;28;20443;-79
2023/09/01 06:12:08;;;;;;;39.50;36.70;;;;;;;;;;5092251;28;20879;-78
2023/09/01 06:14:35;;;;;;;36.27;33.30;;;;;;;;;;5092551;28;20458;-79
2023/09/01 06:17:02;;;;;;;38.07;35.10;;;;;;;;;;5093513;28;20529;-78
2023/09/01 06:19:29;;;;;;;39.30;36.20;;;;;;;;;;5096906;28;20480;-78
2023/09/01 06:21:56;;;;;;;38.73;35.53;;;;;;;;;;5092749;28;20442;-78
2023/09/01 06:24:23;;;;;;;36.37;33.60;;;;;;;;;;5094698;28;20463;-78
2023/09/01 06:26:52;;;;;;;37.90;34.73;;;;;;;;;;5094568;28;20419;-78
2023/09/01 06:29:19;;;;;;;34.27;31.77;;;;;;;;;;5094666;28;20747;-78
2023/09/01 06:31:47;;;;;;;32.50;30.07;;;;;;;;;;5094620;28;20472;-77
2023/09/01 06:34:14;;;;;;;31.37;29.47;;;;;;;;;;5093127;28;20814;-77
2023/09/01 06:36:41;;;;;;;29.93;28.23;;;;;;;;;;5092077;28;20426;-78
2023/09/01 06:39:08;;;;;;;30.63;28.60;;;;;;;;;;5093728;28;20400;-77
2023/09/01 06:41:35;;;;;;;30.13;27.60;;;;;;;;;;5092814;28;20420;-77
2023/09/01 06:44:03;;;;;;;28.80;27.00;;;;;;;;;;5093433;28;20465;-77
2023/09/01 06:46:30;;;;;;;28.43;26.60;;;;;;;;;;5093396;28;20411;-78
2023/09/01 06:48:57;;;;;;;28.00;26.10;;;;;;;;;;5092847;28;20475;-78
2023/09/01 06:51:25;;;;;;;28.93;26.90;;;;;;;;;;5091958;28;20464;-78
2023/09/01 06:53:52;;;;;;;28.37;26.33;;;;;;;;;;5092147;28;20445;-77
2023/09/01 06:56:19;;;;;;;29.10;27.00;;;;;;;;;;5092534;28;20431;-78
2023/09/01 06:58:46;;;;;;;27.87;25.77;;;;;;;;;;5091871;28;20478;-77
2023/09/01 07:01:15;;;;;;;27.20;25.33;;;;;;;;;;5091246;28;20464;-78
2023/09/01 07:03:43;;;;;;;27.37;25.57;;;;;;;;;;5092217;28;20444;-77
2023/09/01 07:06:10;;;;;;;27.27;25.30;;;;;;;;;;5091975;28;20480;-79
2023/09/01 07:08:37;;;;;;;26.10;24.27;;;;;;;;;;5095466;28;20441;-77
2023/09/01 07:11:05;;;;;;;25.20;23.43;;;;;;;;;;5095396;28;20802;-77
2023/09/01 07:13:32;;;;;;;24.73;23.03;;;;;;;;;;5095773;28;20443;-78
2023/09/01 07:15:59;;;;;;;26.47;24.63;;;;;;;;;;5096021;28;20471;-78
2023/09/01 07:18:29;;;;;;;27.23;25.10;;;;;;;;;;5095761;28;20761;-78
2023/09/01 07:20:59;;;;;;;25.73;24.10;;;;;;;;;;5095307;28;20427;-78
2023/09/01 07:23:26;;;;;;;26.77;24.97;;;;;;;;;;5095254;28;21262;-78
2023/09/01 07:25:53;;;;;;;25.57;23.60;;;;;;;;;;5095660;28;20498;-78
2023/09/01 07:28:20;;;;;;;26.77;24.77;;;;;;;;;;5095243;28;20441;-78
2023/09/01 07:30:48;;;;;;;24.73;22.73;;;;;;;;;;5094769;28;20762;-77
2023/09/01 07:33:15;;;;;;;23.37;22.07;;;;;;;;;;5094062;28;20869;-78
2023/09/01 07:35:47;;;;;;;23.00;21.60;;;;;;;;;;5095381;28;20471;-77
2023/09/01 07:38:14;;;;;;;22.40;20.53;;;;;;;;;;5095514;28;20425;-78
2023/09/01 07:40:41;;;;;;;23.10;21.60;;;;;;;;;;5094487;28;20440;-77
2023/09/01 07:43:08;;;;;;;23.10;21.53;;;;;;;;;;5095427;28;20443;-78
2023/09/01 07:45:36;;;;;;;22.40;20.80;;;;;;;;;;5095362;28;20872;-77
2023/09/01 07:48:03;;;;;;;22.33;20.93;;;;;;;;;;5095430;28;20472;-77
2023/09/01 07:50:30;;;;;;;22.67;20.80;;;;;;;;;;5095454;28;20480;-78
2023/09/01 07:52:59;;;;;;;21.70;20.40;;;;;;;;;;5095113;28;20503;-78
2023/09/01 07:55:27;;;;;;;22.93;20.90;;;;;;;;;;5096302;28;20519;-78
2023/09/01 07:57:54;;;;;;;21.77;20.30;;;;;;;;;;5095925;28;20437;-78
2023/09/01 08:00:22;;;;;;;21.33;20.10;;;;;;;;;;5095124;28;20972;-78
2023/09/01 08:02:49;;;;;;;22.80;21.30;;;;;;;;;;5094573;28;20948;-77
2023/09/01 08:05:17;;;;;;;23.70;22.20;;;;;;;;;;5095734;28;20511;-77
2023/09/01 08:07:46;;;;;;;22.83;21.17;;;;;;;;;;5095243;28;20551;-78
2023/09/01 08:10:15;;;;;;;22.07;20.77;;;;;;;;;;5095352;28;20439;-78
2023/09/01 08:12:42;;;;;;;23.40;21.83;;;;;;;;;;5094959;28;20448;-78
2023/09/01 08:15:09;;;;;;;22.30;20.80;;;;;;;;;;5094807;28;20483;-77
2023/09/01 08:17:37;;;;;;;22.07;20.73;;;;;;;;;;5092956;28;20419;-77
2023/09/01 08:20:04;;;;;;;22.30;21.00;;;;;;;;;;5093563;28;20414;-77
2023/09/01 08:22:32;;;;;;;24.83;22.80;;;;;;;;;;5094726;28;20493;-78
2023/09/01 08:24:59;;;;;;;22.00;20.23;;;;;;;;;;5094689;28;20465;-78
2023/09/01 08:27:28;;;;;;;22.50;21.00;;;;;;;;;;5094863;28;20459;-77
2023/09/01 08:29:55;;;;;;;23.50;21.70;;;;;;;;;;5093861;28;20557;-77
2023/09/01 08:32:22;;;;;;;21.90;20.50;;;;;;;;;;5094491;28;21276;-77
2023/09/01 08:34:49;;;;;;;24.50;22.30;;;;;;;;;;5094495;28;20473;-78
2023/09/01 08:37:17;;;;;;;23.27;21.73;;;;;;;;;;5094355;28;20801;-77
2023/09/01 08:39:44;;;;;;;23.03;21.53;;;;;;;;;;5093421;28;20419;-79
2023/09/01 08:42:12;;;;;;;22.23;20.63;;;;;;;;;;5094163;28;20443;-78
2023/09/01 08:44:41;;;;;;;21.70;19.90;;;;;;;;;;5094351;28;20419;-78
2023/09/01 08:47:08;;;;;;;22.43;20.83;;;;;;;;;;5094551;28;20449;-77
2023/09/01 08:49:36;;;;;;;22.70;21.03;;;;;;;;;;5095575;28;20812;-77
2023/09/01 08:52:04;;;;;;;21.40;20.10;;;;;;;;;;5093852;28;20445;-77
2023/09/01 08:54:33;;;;;;;22.00;20.60;;;;;;;;;;5093461;28;20961;-77
2023/09/01 08:57:00;;;;;;;21.60;20.17;;;;;;;;;;5094020;28;20449;-77
2023/09/01 08:59:29;;;;;;;20.80;19.50;;;;;;;;;;5094109;28;20540;-77
2023/09/01 09:01:57;;;;;;;19.57;17.93;;;;;;;;;;5093504;28;20522;-77
2023/09/01 09:04:24;;;;;;;21.50;20.17;;;;;;;;;;5095018;28;20851;-76
2023/09/01 09:06:51;;;;;;;19.93;18.73;;;;;;;;;;5094282;28;20622;-78
2023/09/01 09:09:18;;;;;;;20.97;19.53;;;;;;;;;;5094457;28;20493;-77
2023/09/01 09:11:56;;;;;;;20.17;18.50;;;;;;;;;;5092870;28;20431;-78
2023/09/01 09:14:23;;;;;;;21.67;19.77;;;;;;;;;;5094742;28;20889;-77
2023/09/01 09:16:54;;;;;;;20.37;18.83;;;;;;;;;;5093522;28;20474;-77
2023/09/01 09:19:22;;;;;;;21.20;19.87;;;;;;;;;;5093533;28;20452;-77
2023/09/01 09:21:49;;;;;;;21.47;19.73;;;;;;;;;;5092762;28;20444;-78
2023/09/01 09:24:34;;;;;;;22.00;20.50;;;;;;;;;;5093481;28;20448;-77
2023/09/01 09:27:02;;;;;;;20.93;19.53;;;;;;;;;;5093180;28;20476;-78
2023/09/01 09:29:38;;;;;;;21.73;20.10;;;;;;;;;;5092588;28;20912;-78
2023/09/01 09:32:16;;;;;;;20.60;19.50;;;;;;;;;;5092969;28;20469;-77
2023/09/01 09:35:03;;;;;;;20.90;19.40;;;;;;;;;;5093491;28;20796;-77
2023/09/01 09:37:31;;;;;;;20.83;19.50;;;;;;;;;;5093287;28;20430;-77
2023/09/01 09:40:10;;;;;;;21.77;20.37;;;;;;;;;;5092646;28;20453;-78
2023/09/01 09:42:38;;;;;;;21.30;19.87;;;;;;;;;;5092939;28;20994;-78
2023/09/01 09:45:05;;;;;;;20.47;19.20;;;;;;;;;;5093687;28;20916;-78
2023/09/01 09:47:33;;;;;;;21.13;19.87;;;;;;;;;;5093393;28;20540;-77
2023/09/01 09:50:02;;;;;;;20.77;19.57;;;;;;;;;;5093333;28;20460;-77
2023/09/01 09:52:32;;;;;;;20.97;19.73;;;;;;;;;;5093304;28;20518;-77
2023/09/01 09:55:03;;;;;;;20.53;19.23;;;;;;;;;;5092938;28;20469;-78
2023/09/01 09:57:30;;;;;;;19.97;18.77;;;;;;;;;;5092575;28;21234;-78
2023/09/01 10:00:05;;;;;;;21.63;20.00;;;;;;;;;;5092279;28;20444;-77
2023/09/01 10:02:37;;;;;;;21.07;19.77;;;;;;;;;;5092737;28;20472;-78
2023/09/01 10:05:06;;;;;;;20.97;19.67;;;;;;;;;;5092614;28;20430;-77
2023/09/01 10:07:34;;;;;;;20.43;19.30;;;;;;;;;;5092723;28;20436;-77
2023/09/01 10:10:01;;;;;;;20.83;19.30;;;;;;;;;;5091417;28;20429;-77
2023/09/01 10:12:28;;;;;;;18.97;17.80;;;;;;;;;;5092787;28;20446;-77
2023/09/01 10:14:56;;;;;;;19.93;18.83;;;;;;;;;;5092712;28;20781;-77
2023/09/01 10:17:23;;;;;;;72.77;26.80;;;;;;;;;;5092362;28;20483;-78
2023/09/01 10:19:50;;;;;;;23.13;20.93;;;;;;;;;;5091848;28;21233;-78
2023/09/01 10:22:19;;;;;;;20.80;19.37;;;;;;;;;;5092594;28;20465;-77
2023/09/01 10:25:02;;;;;;;82.87;28.03;;;;;;;;;;5092500;28;20549;-78
2023/09/01 10:27:29;;;;;;;21.00;19.70;;;;;;;;;;5092051;28;20427;-77
2023/09/01 10:29:56;;;;;;;21.07;19.77;;;;;;;;;;5091725;28;20444;-77
2023/09/01 10:32:23;;;;;;;21.10;19.90;;;;;;;;;;5092236;28;20488;-77
2023/09/01 10:34:53;;;;;;;20.10;18.90;;;;;;;;;;5091939;28;21144;-77
2023/09/01 10:37:25;;;;;;;20.70;19.50;;;;;;;;;;5091889;28;21001;-78
2023/09/01 10:39:53;;;;;;;20.13;18.87;;;;;;;;;;5092020;28;20407;-78
2023/09/01 10:42:39;;;;;;;19.40;18.30;;;;;;;;;;5091694;28;20464;-78
2023/09/01 10:45:11;;;;;;;20.17;19.07;;;;;;;;;;5092287;28;20444;-77
2023/09/01 10:47:45;;;;;;;21.03;19.63;;;;;;;;;;5092224;28;20472;-77
2023/09/01 10:50:13;;;;;;;21.33;19.67;;;;;;;;;;5091654;28;20431;-77
2023/09/01 10:52:44;;;;;;;22.27;20.40;;;;;;;;;;5092979;28;20480;-78
2023/09/01 10:55:11;;;;;;;20.70;19.60;;;;;;;;;;5092121;28;20433;-78
2023/09/01 10:57:42;;;;;;;23.03;21.23;;;;;;;;;;5092356;28;20445;-77
2023/09/01 11:00:29;;;;;;;20.50;19.40;;;;;;;;;;5091675;28;20427;-78
2023/09/01 11:03:16;;;;;;;20.13;18.93;;;;;;;;;;5092485;28;20888;-77
2023/09/01 11:05:43;;;;;;;20.37;19.27;;;;;;;;;;5092180;28;20531;-77
2023/09/01 11:08:14;;;;;;;19.90;18.83;;;;;;;;;;5092071;28;20441;-77
2023/09/01 11:10:41;;;;;;;86.20;29.47;;;;;;;;;;5095708;28;20438;-77
2023/09/01 11:13:14;;;;;;;22.87;20.60;;;;;;;;;;5100734;28;20514;-77
2023/09/01 11:15:44;;;;;;;20.67;19.30;;;;;;;;;;5099844;28;20472;-77
2023/09/01 11:18:16;;;;;;;20.30;19.20;;;;;;;;;;5099167;28;20468;-78
2023/09/01 11:20:43;;;;;;;20.03;18.97;;;;;;;;;;5096187;28;20441;-77
2023/09/01 11:23:12;;;;;;;20.03;18.93;;;;;;;;;;5099001;28;20824;-78
2023/09/01 11:25:39;;;;;;;20.23;19.13;;;;;;;;;;5096698;28;20452;-77
2023/09/01 11:28:06;;;;;;;20.30;19.20;;;;;;;;;;5096528;28;20445;-77
2023/09/01 11:30:33;;;;;;;20.50;19.40;;;;;;;;;;5095850;28;20484;-78
2023/09/01 11:33:11;;;;;;;19.90;18.80;;;;;;;;;;5095878;28;20475;-77
2023/09/01 11:35:38;;;;;;;20.70;19.40;;;;;;;;;;5096149;28;20471;-78
2023/09/01 11:38:05;;;;;;;20.03;18.83;;;;;;;;;;5096621;28;20423;-77
2023/09/01 11:40:34;;;;;;;19.60;18.60;;;;;;;;;;5101142;28;20420;-78
2023/09/01 11:43:02;;;;;;;19.50;18.40;;;;;;;;;;5098756;28;20453;-78
2023/09/01 11:45:29;;;;;;;20.80;19.60;;;;;;;;;;5106099;28;20494;-77
2023/09/01 11:47:56;;;;;;;19.23;18.20;;;;;;;;;;5103545;28;20419;-77
2023/09/01 11:50:24;;;;;;;20.10;18.80;;;;;;;;;;5088603;28;20492;-77
2023/09/01 11:52:54;;;;;;;19.80;18.80;;;;;;;;;;5086689;28;20489;-78
2023/09/01 11:55:37;;;;;;;20.30;18.67;;;;;;;;;;5080550;28;20430;-79
2023/09/01 11:58:04;;;;;;;19.30;18.30;;;;;;;;;;5078540;28;20453;-78
2023/09/01 12:00:36;;;;;;;19.90;18.80;;;;;;;;;;5078315;28;20980;-82
2023/09/01 12:03:04;;;;;;;19.47;18.43;;;;;;;;;;5097914;28;20511;-80
2023/09/01 12:05:32;;;;;;;19.20;18.10;;;;;;;;;;5097859;28;20459;-76
2023/09/01 12:08:01;;;;;;;19.40;18.07;;;;;;;;;;5094985;28;20514;-77
2023/09/01 12:10:28;;;;;;;18.93;17.80;;;;;;;;;;5095110;28;20871;-77
2023/09/01 12:13:12;;;;;;;19.50;18.50;;;;;;;;;;5095324;28;20496;-77
2023/09/01 12:15:56;;;;;;;18.17;17.27;;;;;;;;;;5097417;28;20444;-78
2023/09/01 12:18:36;;;;;;;19.00;18.07;;;;;;;;;;5086538;28;20494;-76
2023/09/01 12:21:05;;;;;;;18.80;17.90;;;;;;;;;;5089630;28;20457;-77
2023/09/01 12:23:32;;;;;;;19.00;18.10;;;;;;;;;;5088118;28;20867;-77
2023/09/01 12:26:01;;;;;;;18.30;17.40;;;;;;;;;;5084144;28;20752;-76
2023/09/01 12:28:30;;;;;;;18.93;18.03;;;;;;;;;;5089770;27;20531;-75
2023/09/01 12:30:57;;;;;;;18.73;17.73;;;;;;;;;;5090859;28;20453;-75
2023/09/01 12:33:25;;;;;;;18.77;17.77;;;;;;;;;;5083815;28;20455;-76
2023/09/01 12:35:52;;;;;;;18.00;17.13;;;;;;;;;;5089216;28;20488;-76
2023/09/01 12:38:19;;;;;;;19.97;18.80;;;;;;;;;;5093656;28;20483;-75
2023/09/01 12:40:46;;;;;;;19.60;18.60;;;;;;;;;;5080190;28;20413;-76
2023/09/01 12:43:13;;;;;;;19.70;18.77;;;;;;;;;;5082426;28;20503;-75
2023/09/01 12:45:42;;;;;;;19.07;18.17;;;;;;;;;;5084222;28;20462;-77
2023/09/01 12:48:09;;;;;;;18.20;17.20;;;;;;;;;;5080803;28;20449;-76
2023/09/01 12:50:36;;;;;;;18.40;17.50;;;;;;;;;;5097288;28;20445;-77
2023/09/01 12:53:03;;;;;;;18.90;18.00;;;;;;;;;;5086076;28;20498;-77
2023/09/01 12:55:31;;;;;;;19.20;18.30;;;;;;;;;;5075946;28;20424;-76
2023/09/01 12:57:58;;;;;;;18.60;17.63;;;;;;;;;;5076046;28;20467;-77
2023/09/01 13:00:25;;;;;;;19.10;18.00;;;;;;;;;;5076186;28;20431;-77
2023/09/01 13:02:53;;;;;;;19.13;18.23;;;;;;;;;;5076408;28;20489;-77
2023/09/01 13:05:21;;;;;;;19.93;18.83;;;;;;;;;;5095657;28;20455;-77
2023/09/01 13:07:48;;;;;;;19.13;18.23;;;;;;;;;;5114193;28;20512;-78
2023/09/01 13:10:16;;;;;;;19.80;18.70;;;;;;;;;;5121797;28;20509;-77
2023/09/01 13:12:43;;;;;;;20.00;18.87;;;;;;;;;;5117021;28;20486;-77
2023/09/01 13:15:12;;;;;;;20.60;19.60;;;;;;;;;;5114649;27;20439;-76
2023/09/01 13:17:39;;;;;;;19.63;18.63;;;;;;;;;;5113495;28;20484;-77
2023/09/01 13:20:08;;;;;;;19.97;18.97;;;;;;;;;;5103230;28;20431;-77
2023/09/01 13:22:35;;;;;;;19.80;18.80;;;;;;;;;;5072870;28;20445;-78
2023/09/01 13:25:04;;;;;;;20.23;19.23;;;;;;;;;;5073625;28;20448;-78
2023/09/01 13:27:31;;;;;;;21.80;20.70;;;;;;;;;;5078871;28;20481;-78
2023/09/01 13:29:58;;;;;;;21.00;20.00;;;;;;;;;;5099878;28;20441;-78
2023/09/01 13:32:27;;;;;;;20.30;19.20;;;;;;;;;;5102632;28;20451;-78
2023/09/01 13:34:54;;;;;;;21.43;20.33;;;;;;;;;;5088778;28;20896;-78
2023/09/01 13:37:23;;;;;;;21.67;20.57;;;;;;;;;;5090131;28;20476;-78
2023/09/01 13:39:55;;;;;;;20.13;19.03;;;;;;;;;;5102643;28;20420;-78
2023/09/01 13:42:22;;;;;;;21.17;19.93;;;;;;;;;;5098249;28;20489;-79
2023/09/01 13:44:52;;;;;;;21.27;20.17;;;;;;;;;;5089652;28;20452;-78
2023/09/01 13:47:19;;;;;;;21.07;19.77;;;;;;;;;;5093902;28;20956;-78
2023/09/01 13:49:46;;;;;;;21.40;20.27;;;;;;;;;;5100222;28;20444;-78
2023/09/01 13:52:14;;;;;;;20.87;19.77;;;;;;;;;;5100109;28;20462;-79
2023/09/01 13:54:42;;;;;;;20.90;19.90;;;;;;;;;;5110280;28;21043;-79
2023/09/01 13:57:10;;;;;;;21.37;20.13;;;;;;;;;;5098406;28;20534;-79
2023/09/01 13:59:37;;;;;;;20.10;19.10;;;;;;;;;;5100777;28;20449;-80
2023/09/01 14:02:05;;;;;;;20.50;19.50;;;;;;;;;;5098240;28;20465;-78
2023/09/01 14:04:32;;;;;;;21.53;20.33;;;;;;;;;;5097131;28;20426;-77
2023/09/01 14:07:00;;;;;;;20.80;19.70;;;;;;;;;;5099135;28;20544;-79
2023/09/01 14:09:27;;;;;;;21.07;19.83;;;;;;;;;;5100061;28;20418;-78
2023/09/01 14:11:56;;;;;;;20.60;19.60;;;;;;;;;;5095435;28;20472;-80
2023/09/01 14:14:23;;;;;;;20.67;19.57;;;;;;;;;;5077052;28;20415;-79
2023/09/01 14:16:50;;;;;;;21.90;20.80;;;;;;;;;;5077492;28;20478;-78
2023/09/01 14:19:17;;;;;;;20.63;19.53;;;;;;;;;;5086848;28;20461;-78
2023/09/01 14:21:45;;;;;;;19.00;17.90;;;;;;;;;;5083556;28;20820;-80
2023/09/01 14:24:12;;;;;;;19.73;18.63;;;;;;;;;;5078137;28;20448;-80
2023/09/01 14:26:40;;;;;;;19.43;18.43;;;;;;;;;;5078614;28;20942;-78
2023/09/01 14:29:08;;;;;;;21.97;20.87;;;;;;;;;;5088547;27;20444;-78
2023/09/01 14:31:35;;;;;;;21.07;20.07;;;;;;;;;;5101025;28;20423;-79
2023/09/01 14:34:02;;;;;;;20.50;19.50;;;;;;;;;;5103504;28;20469;-86
2023/09/01 14:36:30;;;;;;;20.70;19.70;;;;;;;;;;5107893;28;20484;-84